sensor_id;sensor_type;location;lat;lon;timestamp;temperature;humidity
38020;DHT22;23829;51.350;17.286;2023-05-10T00:00:04;21.80;32.90
38020;DHT22;23829;51.350;17.286;2023-05-10T00:02:59;21.90;33.00
38020;DHT22;23829;51.350;17.286;2023-05-10T00:05:25;21.70;33.10
38020;DHT22;23829;51.350;17.286;2023-05-10T00:07:51;21.40;33.50
38020;DHT22;23829;51.350;17.286;2023-05-10T00:10:18;21.70;33.10
38020;DHT22;23829;51.350;17.286;2023-05-10T00:12:44;22.10;32.60
38020;DHT22;23829;51.350;17.286;2023-05-10T00:15:11;21.90;32.80
38020;DHT22;23829;51.350;17.286;2023-05-10T00:17:37;21.80;33.10
38020;DHT22;23829;51.350;17.286;2023-05-10T00:20:04;21.60;33.20
38020;DHT22;23829;51.350;17.286;2023-05-10T00:22:31;21.60;33.20
38020;DHT22;23829;51.350;17.286;2023-05-10T00:24:59;21.80;33.30
38020;DHT22;23829;51.350;17.286;2023-05-10T00:27:25;21.50;33.40
38020;DHT22;23829;51.350;17.286;2023-05-10T00:29:52;21.40;33.80
38020;DHT22;23829;51.350;17.286;2023-05-10T00:32:18;21.40;33.70
38020;DHT22;23829;51.350;17.286;2023-05-10T00:34:45;21.20;34.20
38020;DHT22;23829;51.350;17.286;2023-05-10T00:37:11;21.40;33.80
38020;DHT22;23829;51.350;17.286;2023-05-10T00:39:38;21.30;34.10
38020;DHT22;23829;51.350;17.286;2023-05-10T00:42:04;21.30;34.20
38020;DHT22;23829;51.350;17.286;2023-05-10T00:44:32;21.30;34.10
38020;DHT22;23829;51.350;17.286;2023-05-10T00:46:59;21.00;34.80
38020;DHT22;23829;51.350;17.286;2023-05-10T00:49:25;21.20;34.30
38020;DHT22;23829;51.350;17.286;2023-05-10T00:51:52;21.30;34.10
38020;DHT22;23829;51.350;17.286;2023-05-10T00:54:19;21.20;34.30
38020;DHT22;23829;51.350;17.286;2023-05-10T00:56:45;21.10;34.60
38020;DHT22;23829;51.350;17.286;2023-05-10T00:59:16;21.10;34.70
38020;DHT22;23829;51.350;17.286;2023-05-10T01:01:45;21.00;34.70
38020;DHT22;23829;51.350;17.286;2023-05-10T01:04:13;21.00;34.80
38020;DHT22;23829;51.350;17.286;2023-05-10T01:06:41;20.90;35.10
38020;DHT22;23829;51.350;17.286;2023-05-10T01:09:09;20.70;35.40
38020;DHT22;23829;51.350;17.286;2023-05-10T01:11:36;20.70;35.40
38020;DHT22;23829;51.350;17.286;2023-05-10T01:14:04;20.70;35.40
38020;DHT22;23829;51.350;17.286;2023-05-10T01:16:41;20.70;35.50
38020;DHT22;23829;51.350;17.286;2023-05-10T01:19:17;20.80;35.40
38020;DHT22;23829;51.350;17.286;2023-05-10T01:32:38;20.60;35.80
38020;DHT22;23829;51.350;17.286;2023-05-10T01:35:28;20.50;35.90
38020;DHT22;23829;51.350;17.286;2023-05-10T01:41:00;20.70;36.00
38020;DHT22;23829;51.350;17.286;2023-05-10T01:43:33;20.70;35.80
38020;DHT22;23829;51.350;17.286;2023-05-10T01:46:09;20.80;35.60
38020;DHT22;23829;51.350;17.286;2023-05-10T01:48:42;20.60;35.70
38020;DHT22;23829;51.350;17.286;2023-05-10T01:51:19;20.70;35.80
38020;DHT22;23829;51.350;17.286;2023-05-10T01:53:48;20.60;35.90
38020;DHT22;23829;51.350;17.286;2023-05-10T01:56:17;20.40;36.20
38020;DHT22;23829;51.350;17.286;2023-05-10T01:58:48;20.70;35.90
38020;DHT22;23829;51.350;17.286;2023-05-10T02:01:16;20.50;36.20
38020;DHT22;23829;51.350;17.286;2023-05-10T02:03:44;20.60;36.10
38020;DHT22;23829;51.350;17.286;2023-05-10T02:06:13;20.50;36.10
38020;DHT22;23829;51.350;17.286;2023-05-10T02:08:41;20.40;36.30
38020;DHT22;23829;51.350;17.286;2023-05-10T02:11:08;20.50;36.30
38020;DHT22;23829;51.350;17.286;2023-05-10T02:13:38;20.50;36.10
38020;DHT22;23829;51.350;17.286;2023-05-10T02:16:06;20.80;35.70
38020;DHT22;23829;51.350;17.286;2023-05-10T02:18:34;20.70;35.80
38020;DHT22;23829;51.350;17.286;2023-05-10T02:21:02;20.60;36.00
38020;DHT22;23829;51.350;17.286;2023-05-10T02:23:30;20.60;36.00
38020;DHT22;23829;51.350;17.286;2023-05-10T02:25:58;20.50;36.20
38020;DHT22;23829;51.350;17.286;2023-05-10T02:28:27;20.50;36.30
38020;DHT22;23829;51.350;17.286;2023-05-10T02:30:55;20.50;36.30
38020;DHT22;23829;51.350;17.286;2023-05-10T02:33:22;20.50;36.30
38020;DHT22;23829;51.350;17.286;2023-05-10T02:35:51;20.10;36.70
38020;DHT22;23829;51.350;17.286;2023-05-10T02:38:20;20.00;37.00
38020;DHT22;23829;51.350;17.286;2023-05-10T02:40:48;20.10;37.00
38020;DHT22;23829;51.350;17.286;2023-05-10T02:43:16;20.10;36.80
38020;DHT22;23829;51.350;17.286;2023-05-10T02:45:47;20.10;36.90
38020;DHT22;23829;51.350;17.286;2023-05-10T02:48:14;20.30;37.00
38020;DHT22;23829;51.350;17.286;2023-05-10T02:50:44;20.40;36.50
38020;DHT22;23829;51.350;17.286;2023-05-10T02:53:15;20.50;36.30
38020;DHT22;23829;51.350;17.286;2023-05-10T02:55:44;20.40;36.50
38020;DHT22;23829;51.350;17.286;2023-05-10T02:58:13;20.70;35.80
38020;DHT22;23829;51.350;17.286;2023-05-10T03:00:40;20.90;35.70
38020;DHT22;23829;51.350;17.286;2023-05-10T03:03:07;20.90;35.60
38020;DHT22;23829;51.350;17.286;2023-05-10T03:05:33;20.70;35.80
38020;DHT22;23829;51.350;17.286;2023-05-10T03:08:02;20.80;35.80
38020;DHT22;23829;51.350;17.286;2023-05-10T03:10:32;20.60;36.10
38020;DHT22;23829;51.350;17.286;2023-05-10T03:13:27;20.50;36.40
38020;DHT22;23829;51.350;17.286;2023-05-10T03:16:02;20.60;36.40
38020;DHT22;23829;51.350;17.286;2023-05-10T03:18:54;20.30;36.50
38020;DHT22;23829;51.350;17.286;2023-05-10T03:21:26;20.60;36.10
38020;DHT22;23829;51.350;17.286;2023-05-10T03:24:01;20.60;36.10
38020;DHT22;23829;51.350;17.286;2023-05-10T03:26:29;20.80;35.90
38020;DHT22;23829;51.350;17.286;2023-05-10T03:29:09;20.80;35.70
38020;DHT22;23829;51.350;17.286;2023-05-10T03:31:37;20.70;35.70
38020;DHT22;23829;51.350;17.286;2023-05-10T03:34:04;20.60;36.00
38020;DHT22;23829;51.350;17.286;2023-05-10T03:36:31;20.70;35.80
38020;DHT22;23829;51.350;17.286;2023-05-10T03:38:58;20.60;35.80
38020;DHT22;23829;51.350;17.286;2023-05-10T03:41:25;20.70;35.80
38020;DHT22;23829;51.350;17.286;2023-05-10T03:43:51;20.70;35.90
38020;DHT22;23829;51.350;17.286;2023-05-10T03:46:18;20.40;36.20
38020;DHT22;23829;51.350;17.286;2023-05-10T03:48:45;20.50;36.20
38020;DHT22;23829;51.350;17.286;2023-05-10T03:51:11;20.70;36.20
38020;DHT22;23829;51.350;17.286;2023-05-10T03:53:39;21.00;35.50
38020;DHT22;23829;51.350;17.286;2023-05-10T03:56:05;21.50;34.60
38020;DHT22;23829;51.350;17.286;2023-05-10T03:58:32;21.00;35.30
38020;DHT22;23829;51.350;17.286;2023-05-10T04:00:59;21.00;35.40
38020;DHT22;23829;51.350;17.286;2023-05-10T04:03:25;20.90;35.50
38020;DHT22;23829;51.350;17.286;2023-05-10T04:05:59;20.70;35.80
38020;DHT22;23829;51.350;17.286;2023-05-10T04:08:27;20.60;36.20
38020;DHT22;23829;51.350;17.286;2023-05-10T04:10:53;20.70;36.00
38020;DHT22;23829;51.350;17.286;2023-05-10T04:13:19;20.60;36.20
38020;DHT22;23829;51.350;17.286;2023-05-10T04:15:47;20.60;36.10
38020;DHT22;23829;51.350;17.286;2023-05-10T04:18:13;20.40;36.50
38020;DHT22;23829;51.350;17.286;2023-05-10T04:20:40;20.50;36.50
38020;DHT22;23829;51.350;17.286;2023-05-10T04:23:06;20.70;36.20
38020;DHT22;23829;51.350;17.286;2023-05-10T04:25:34;20.80;35.90
38020;DHT22;23829;51.350;17.286;2023-05-10T04:28:01;20.80;36.00
38020;DHT22;23829;51.350;17.286;2023-05-10T04:30:27;20.70;36.10
38020;DHT22;23829;51.350;17.286;2023-05-10T04:32:55;20.80;36.10
38020;DHT22;23829;51.350;17.286;2023-05-10T04:35:21;21.00;36.00
38020;DHT22;23829;51.350;17.286;2023-05-10T04:37:47;20.90;35.80
38020;DHT22;23829;51.350;17.286;2023-05-10T04:40:14;20.90;35.90
38020;DHT22;23829;51.350;17.286;2023-05-10T04:42:40;21.30;35.40
38020;DHT22;23829;51.350;17.286;2023-05-10T04:45:10;21.10;35.40
38020;DHT22;23829;51.350;17.286;2023-05-10T04:47:36;20.80;35.90
38020;DHT22;23829;51.350;17.286;2023-05-10T04:50:03;21.10;35.70
38020;DHT22;23829;51.350;17.286;2023-05-10T04:52:30;21.50;35.10
38020;DHT22;23829;51.350;17.286;2023-05-10T04:54:56;21.50;35.10
38020;DHT22;23829;51.350;17.286;2023-05-10T04:57:23;21.90;34.60
38020;DHT22;23829;51.350;17.286;2023-05-10T04:59:49;21.80;34.50
38020;DHT22;23829;51.350;17.286;2023-05-10T05:02:15;21.60;34.90
38020;DHT22;23829;51.350;17.286;2023-05-10T05:04:42;21.50;35.30
38020;DHT22;23829;51.350;17.286;2023-05-10T05:07:08;21.70;34.90
38020;DHT22;23829;51.350;17.286;2023-05-10T05:09:35;21.60;34.80
38020;DHT22;23829;51.350;17.286;2023-05-10T05:12:02;22.50;33.60
38020;DHT22;23829;51.350;17.286;2023-05-10T05:14:28;22.60;33.50
38020;DHT22;23829;51.350;17.286;2023-05-10T05:16:54;22.80;33.20
38020;DHT22;23829;51.350;17.286;2023-05-10T05:19:21;22.60;33.50
38020;DHT22;23829;51.350;17.286;2023-05-10T05:21:48;22.50;33.70
38020;DHT22;23829;51.350;17.286;2023-05-10T05:24:15;22.50;34.00
38020;DHT22;23829;51.350;17.286;2023-05-10T05:26:41;22.50;33.90
38020;DHT22;23829;51.350;17.286;2023-05-10T05:29:07;22.80;33.50
38020;DHT22;23829;51.350;17.286;2023-05-10T05:31:34;22.90;33.30
38020;DHT22;23829;51.350;17.286;2023-05-10T05:34:00;23.10;33.10
38020;DHT22;23829;51.350;17.286;2023-05-10T05:36:27;23.00;33.10
38020;DHT22;23829;51.350;17.286;2023-05-10T05:38:53;23.20;32.90
38020;DHT22;23829;51.350;17.286;2023-05-10T05:41:19;23.30;33.10
38020;DHT22;23829;51.350;17.286;2023-05-10T05:43:47;23.80;32.20
38020;DHT22;23829;51.350;17.286;2023-05-10T05:46:14;24.10;31.60
38020;DHT22;23829;51.350;17.286;2023-05-10T05:48:40;23.90;32.00
38020;DHT22;23829;51.350;17.286;2023-05-10T05:51:07;23.60;32.30
38020;DHT22;23829;51.350;17.286;2023-05-10T05:53:33;23.70;32.40
38020;DHT22;23829;51.350;17.286;2023-05-10T05:56:00;23.90;32.00
38020;DHT22;23829;51.350;17.286;2023-05-10T05:58:26;24.20;32.00
38020;DHT22;23829;51.350;17.286;2023-05-10T06:00:53;24.10;32.10
38020;DHT22;23829;51.350;17.286;2023-05-10T06:03:20;24.50;31.90
38020;DHT22;23829;51.350;17.286;2023-05-10T06:05:47;24.30;31.50
38020;DHT22;23829;51.350;17.286;2023-05-10T06:08:13;24.50;31.60
38020;DHT22;23829;51.350;17.286;2023-05-10T06:10:40;24.80;31.60
38020;DHT22;23829;51.350;17.286;2023-05-10T06:13:06;24.80;31.20
38020;DHT22;23829;51.350;17.286;2023-05-10T06:15:32;24.50;31.10
38020;DHT22;23829;51.350;17.286;2023-05-10T06:17:59;24.60;31.60
38020;DHT22;23829;51.350;17.286;2023-05-10T06:20:25;24.30;31.80
38020;DHT22;23829;51.350;17.286;2023-05-10T06:22:52;24.40;32.40
38020;DHT22;23829;51.350;17.286;2023-05-10T06:25:18;24.70;31.30
38020;DHT22;23829;51.350;17.286;2023-05-10T06:27:45;24.50;32.20
38020;DHT22;23829;51.350;17.286;2023-05-10T06:30:11;24.80;31.60
38020;DHT22;23829;51.350;17.286;2023-05-10T06:32:39;24.50;31.60
38020;DHT22;23829;51.350;17.286;2023-05-10T06:35:06;25.00;31.00
38020;DHT22;23829;51.350;17.286;2023-05-10T06:37:32;24.90;31.30
38020;DHT22;23829;51.350;17.286;2023-05-10T06:39:59;24.90;31.90
38020;DHT22;23829;51.350;17.286;2023-05-10T06:42:26;24.70;32.60
38020;DHT22;23829;51.350;17.286;2023-05-10T06:44:53;24.80;31.90
38020;DHT22;23829;51.350;17.286;2023-05-10T06:47:19;25.10;31.30
38020;DHT22;23829;51.350;17.286;2023-05-10T06:49:46;24.70;31.70
38020;DHT22;23829;51.350;17.286;2023-05-10T06:52:12;25.00;31.90
38020;DHT22;23829;51.350;17.286;2023-05-10T06:54:38;25.90;31.10
38020;DHT22;23829;51.350;17.286;2023-05-10T06:57:05;25.70;30.80
38020;DHT22;23829;51.350;17.286;2023-05-10T06:59:31;25.50;31.40
38020;DHT22;23829;51.350;17.286;2023-05-10T07:01:58;25.40;31.10
38020;DHT22;23829;51.350;17.286;2023-05-10T07:04:24;26.10;31.20
38020;DHT22;23829;51.350;17.286;2023-05-10T07:06:50;25.90;30.80
38020;DHT22;23829;51.350;17.286;2023-05-10T07:09:17;26.00;31.20
38020;DHT22;23829;51.350;17.286;2023-05-10T07:11:43;26.20;31.00
38020;DHT22;23829;51.350;17.286;2023-05-10T07:14:10;26.30;31.50
38020;DHT22;23829;51.350;17.286;2023-05-10T07:16:36;26.30;31.30
38020;DHT22;23829;51.350;17.286;2023-05-10T07:19:02;26.30;30.90
38020;DHT22;23829;51.350;17.286;2023-05-10T07:21:31;26.50;30.40
38020;DHT22;23829;51.350;17.286;2023-05-10T07:23:58;26.30;31.20
38020;DHT22;23829;51.350;17.286;2023-05-10T07:26:25;26.50;31.50
38020;DHT22;23829;51.350;17.286;2023-05-10T07:28:52;26.60;31.00
38020;DHT22;23829;51.350;17.286;2023-05-10T07:31:18;26.50;30.90
38020;DHT22;23829;51.350;17.286;2023-05-10T07:33:45;26.10;31.70
38020;DHT22;23829;51.350;17.286;2023-05-10T07:36:11;26.30;31.80
38020;DHT22;23829;51.350;17.286;2023-05-10T07:38:39;26.40;31.10
38020;DHT22;23829;51.350;17.286;2023-05-10T07:41:05;26.40;31.80
38020;DHT22;23829;51.350;17.286;2023-05-10T07:43:32;26.40;31.60
38020;DHT22;23829;51.350;17.286;2023-05-10T07:45:58;26.60;31.60
38020;DHT22;23829;51.350;17.286;2023-05-10T07:48:26;27.40;31.10
38020;DHT22;23829;51.350;17.286;2023-05-10T07:50:52;27.20;31.10
38020;DHT22;23829;51.350;17.286;2023-05-10T07:53:19;27.30;31.30
38020;DHT22;23829;51.350;17.286;2023-05-10T07:55:50;26.90;30.90
38020;DHT22;23829;51.350;17.286;2023-05-10T07:58:17;27.00;32.20
38020;DHT22;23829;51.350;17.286;2023-05-10T08:00:43;26.80;32.10
38020;DHT22;23829;51.350;17.286;2023-05-10T08:03:10;27.10;32.20
38020;DHT22;23829;51.350;17.286;2023-05-10T08:05:36;27.30;31.90
38020;DHT22;23829;51.350;17.286;2023-05-10T08:08:03;27.00;31.70
38020;DHT22;23829;51.350;17.286;2023-05-10T08:10:29;26.80;32.00
38020;DHT22;23829;51.350;17.286;2023-05-10T08:12:56;27.40;31.60
38020;DHT22;23829;51.350;17.286;2023-05-10T08:15:24;27.30;31.30
38020;DHT22;23829;51.350;17.286;2023-05-10T08:17:52;26.90;32.30
38020;DHT22;23829;51.350;17.286;2023-05-10T08:20:18;27.10;31.90
38020;DHT22;23829;51.350;17.286;2023-05-10T08:22:45;27.40;31.80
38020;DHT22;23829;51.350;17.286;2023-05-10T08:25:12;27.40;31.90
38020;DHT22;23829;51.350;17.286;2023-05-10T08:27:38;27.40;31.40
38020;DHT22;23829;51.350;17.286;2023-05-10T08:30:05;27.30;31.90
38020;DHT22;23829;51.350;17.286;2023-05-10T08:32:32;27.50;32.10
38020;DHT22;23829;51.350;17.286;2023-05-10T08:34:59;27.80;31.80
38020;DHT22;23829;51.350;17.286;2023-05-10T08:37:25;28.10;31.20
38020;DHT22;23829;51.350;17.286;2023-05-10T08:39:52;28.20;32.20
38020;DHT22;23829;51.350;17.286;2023-05-10T08:42:19;28.60;31.60
38020;DHT22;23829;51.350;17.286;2023-05-10T08:44:49;28.50;30.50
38020;DHT22;23829;51.350;17.286;2023-05-10T08:47:18;28.20;31.00
38020;DHT22;23829;51.350;17.286;2023-05-10T08:49:47;28.10;31.70
38020;DHT22;23829;51.350;17.286;2023-05-10T08:52:15;28.20;31.50
38020;DHT22;23829;51.350;17.286;2023-05-10T08:54:42;28.40;31.30
38020;DHT22;23829;51.350;17.286;2023-05-10T08:57:10;29.10;31.10
38020;DHT22;23829;51.350;17.286;2023-05-10T08:59:36;28.80;31.20
38020;DHT22;23829;51.350;17.286;2023-05-10T09:02:05;28.30;31.20
38020;DHT22;23829;51.350;17.286;2023-05-10T09:04:32;28.20;31.30
38020;DHT22;23829;51.350;17.286;2023-05-10T09:06:59;28.20;31.90
38020;DHT22;23829;51.350;17.286;2023-05-10T09:09:25;28.30;31.40
38020;DHT22;23829;51.350;17.286;2023-05-10T09:11:53;28.40;30.90
38020;DHT22;23829;51.350;17.286;2023-05-10T09:14:20;28.30;30.90
38020;DHT22;23829;51.350;17.286;2023-05-10T09:16:48;28.70;30.80
38020;DHT22;23829;51.350;17.286;2023-05-10T09:19:15;28.50;31.80
38020;DHT22;23829;51.350;17.286;2023-05-10T09:21:41;28.70;31.50
38020;DHT22;23829;51.350;17.286;2023-05-10T09:24:08;28.40;31.20
38020;DHT22;23829;51.350;17.286;2023-05-10T09:26:35;28.90;31.10
38020;DHT22;23829;51.350;17.286;2023-05-10T09:29:11;29.00;30.70
38020;DHT22;23829;51.350;17.286;2023-05-10T09:31:48;29.10;31.70
38020;DHT22;23829;51.350;17.286;2023-05-10T09:34:37;29.10;30.70
38020;DHT22;23829;51.350;17.286;2023-05-10T09:37:06;29.60;29.70
38020;DHT22;23829;51.350;17.286;2023-05-10T09:39:38;29.80;29.30
38020;DHT22;23829;51.350;17.286;2023-05-10T09:42:07;29.70;29.30
38020;DHT22;23829;51.350;17.286;2023-05-10T09:44:33;29.70;29.50
38020;DHT22;23829;51.350;17.286;2023-05-10T09:47:03;30.00;28.80
38020;DHT22;23829;51.350;17.286;2023-05-10T09:49:30;30.00;29.00
38020;DHT22;23829;51.350;17.286;2023-05-10T09:52:07;29.90;28.60
38020;DHT22;23829;51.350;17.286;2023-05-10T09:54:34;29.70;29.90
38020;DHT22;23829;51.350;17.286;2023-05-10T09:57:01;29.30;29.10
38020;DHT22;23829;51.350;17.286;2023-05-10T09:59:28;29.30;29.20
38020;DHT22;23829;51.350;17.286;2023-05-10T10:01:59;29.80;28.80
38020;DHT22;23829;51.350;17.286;2023-05-10T10:04:26;29.70;28.20
38020;DHT22;23829;51.350;17.286;2023-05-10T10:07:03;29.90;28.00
38020;DHT22;23829;51.350;17.286;2023-05-10T10:09:30;29.60;28.10
38020;DHT22;23829;51.350;17.286;2023-05-10T10:11:56;29.30;28.60
38020;DHT22;23829;51.350;17.286;2023-05-10T10:14:23;29.60;29.30
38020;DHT22;23829;51.350;17.286;2023-05-10T10:16:51;29.60;29.00
38020;DHT22;23829;51.350;17.286;2023-05-10T10:19:21;29.40;28.90
38020;DHT22;23829;51.350;17.286;2023-05-10T10:21:49;29.30;29.50
38020;DHT22;23829;51.350;17.286;2023-05-10T10:24:15;29.50;29.70
38020;DHT22;23829;51.350;17.286;2023-05-10T10:26:42;29.60;29.10
38020;DHT22;23829;51.350;17.286;2023-05-10T10:34:35;30.30;28.10
38020;DHT22;23829;51.350;17.286;2023-05-10T10:37:05;30.20;28.40
38020;DHT22;23829;51.350;17.286;2023-05-10T10:39:32;30.10;27.90
38020;DHT22;23829;51.350;17.286;2023-05-10T10:41:59;30.00;28.20
38020;DHT22;23829;51.350;17.286;2023-05-10T10:50:02;30.70;27.90
38020;DHT22;23829;51.350;17.286;2023-05-10T10:52:34;30.30;28.20
38020;DHT22;23829;51.350;17.286;2023-05-10T10:55:10;30.40;27.90
38020;DHT22;23829;51.350;17.286;2023-05-10T11:02:55;30.20;28.60
38020;DHT22;23829;51.350;17.286;2023-05-10T11:05:47;30.30;28.10
38020;DHT22;23829;51.350;17.286;2023-05-10T11:08:31;30.40;28.10
38020;DHT22;23829;51.350;17.286;2023-05-10T11:13:41;30.80;27.40
38020;DHT22;23829;51.350;17.286;2023-05-10T11:16:16;30.90;27.70
38020;DHT22;23829;51.350;17.286;2023-05-10T11:19:03;31.20;27.30
38020;DHT22;23829;51.350;17.286;2023-05-10T11:21:31;31.10;26.90
38020;DHT22;23829;51.350;17.286;2023-05-10T11:24:00;31.10;26.90
38020;DHT22;23829;51.350;17.286;2023-05-10T11:26:35;31.00;27.20
38020;DHT22;23829;51.350;17.286;2023-05-10T11:29:03;30.70;27.90
38020;DHT22;23829;51.350;17.286;2023-05-10T11:31:30;30.70;27.30
38020;DHT22;23829;51.350;17.286;2023-05-10T11:33:58;30.10;27.80
38020;DHT22;23829;51.350;17.286;2023-05-10T11:36:26;29.70;27.80
38020;DHT22;23829;51.350;17.286;2023-05-10T11:38:54;29.50;28.50
38020;DHT22;23829;51.350;17.286;2023-05-10T11:41:21;29.60;28.10
38020;DHT22;23829;51.350;17.286;2023-05-10T11:43:50;29.60;27.90
38020;DHT22;23829;51.350;17.286;2023-05-10T11:46:19;30.00;28.60
38020;DHT22;23829;51.350;17.286;2023-05-10T11:48:51;30.10;28.90
38020;DHT22;23829;51.350;17.286;2023-05-10T11:51:24;30.30;28.00
38020;DHT22;23829;51.350;17.286;2023-05-10T11:53:54;30.50;27.70
38020;DHT22;23829;51.350;17.286;2023-05-10T11:56:20;30.50;27.80
38020;DHT22;23829;51.350;17.286;2023-05-10T11:58:57;30.70;27.70
38020;DHT22;23829;51.350;17.286;2023-05-10T12:01:27;30.60;28.50
38020;DHT22;23829;51.350;17.286;2023-05-10T12:03:55;30.40;27.20
38020;DHT22;23829;51.350;17.286;2023-05-10T12:06:30;30.30;28.00
38020;DHT22;23829;51.350;17.286;2023-05-10T12:08:58;30.30;27.70
38020;DHT22;23829;51.350;17.286;2023-05-10T12:11:25;30.90;27.50
38020;DHT22;23829;51.350;17.286;2023-05-10T12:13:52;30.40;27.40
38020;DHT22;23829;51.350;17.286;2023-05-10T12:16:21;30.30;27.40
38020;DHT22;23829;51.350;17.286;2023-05-10T12:18:51;30.30;27.30
38020;DHT22;23829;51.350;17.286;2023-05-10T12:21:20;30.20;27.90
38020;DHT22;23829;51.350;17.286;2023-05-10T12:23:51;30.40;27.50
38020;DHT22;23829;51.350;17.286;2023-05-10T12:26:18;30.20;27.60
38020;DHT22;23829;51.350;17.286;2023-05-10T12:28:47;30.30;28.00
38020;DHT22;23829;51.350;17.286;2023-05-10T12:31:13;30.50;27.80
38020;DHT22;23829;51.350;17.286;2023-05-10T12:33:42;30.70;27.50
38020;DHT22;23829;51.350;17.286;2023-05-10T12:36:10;30.90;27.40
38020;DHT22;23829;51.350;17.286;2023-05-10T12:38:39;30.80;27.30
38020;DHT22;23829;51.350;17.286;2023-05-10T12:41:08;30.60;27.30
38020;DHT22;23829;51.350;17.286;2023-05-10T12:43:35;30.40;27.10
38020;DHT22;23829;51.350;17.286;2023-05-10T12:46:10;30.50;27.30
38020;DHT22;23829;51.350;17.286;2023-05-10T12:48:38;30.20;27.50
38020;DHT22;23829;51.350;17.286;2023-05-10T12:51:05;30.10;27.70
38020;DHT22;23829;51.350;17.286;2023-05-10T12:53:31;30.30;27.40
38020;DHT22;23829;51.350;17.286;2023-05-10T12:55:58;30.20;27.30
38020;DHT22;23829;51.350;17.286;2023-05-10T12:58:24;30.50;26.60
38020;DHT22;23829;51.350;17.286;2023-05-10T13:00:53;31.10;26.50
38020;DHT22;23829;51.350;17.286;2023-05-10T13:03:22;30.90;26.60
38020;DHT22;23829;51.350;17.286;2023-05-10T13:05:51;30.60;27.10
38020;DHT22;23829;51.350;17.286;2023-05-10T13:08:18;30.60;26.60
38020;DHT22;23829;51.350;17.286;2023-05-10T13:10:44;30.90;26.60
38020;DHT22;23829;51.350;17.286;2023-05-10T13:13:14;30.80;26.80
38020;DHT22;23829;51.350;17.286;2023-05-10T13:15:41;30.90;26.80
38020;DHT22;23829;51.350;17.286;2023-05-10T13:18:07;30.70;26.90
38020;DHT22;23829;51.350;17.286;2023-05-10T13:20:34;31.00;27.00
38020;DHT22;23829;51.350;17.286;2023-05-10T13:23:03;31.00;26.90
38020;DHT22;23829;51.350;17.286;2023-05-10T13:25:33;31.00;26.70
38020;DHT22;23829;51.350;17.286;2023-05-10T13:28:00;31.10;27.40
38020;DHT22;23829;51.350;17.286;2023-05-10T13:30:27;31.10;27.20
38020;DHT22;23829;51.350;17.286;2023-05-10T13:32:55;31.30;26.80
38020;DHT22;23829;51.350;17.286;2023-05-10T13:35:21;31.60;26.30
38020;DHT22;23829;51.350;17.286;2023-05-10T13:37:48;31.70;26.10
38020;DHT22;23829;51.350;17.286;2023-05-10T13:40:15;31.60;26.20
38020;DHT22;23829;51.350;17.286;2023-05-10T13:42:42;31.40;25.90
38020;DHT22;23829;51.350;17.286;2023-05-10T13:45:09;30.90;26.20
38020;DHT22;23829;51.350;17.286;2023-05-10T13:47:38;31.40;26.20
38020;DHT22;23829;51.350;17.286;2023-05-10T13:50:04;31.20;26.20
38020;DHT22;23829;51.350;17.286;2023-05-10T13:52:32;31.40;26.30
38020;DHT22;23829;51.350;17.286;2023-05-10T13:54:58;31.20;26.00
38020;DHT22;23829;51.350;17.286;2023-05-10T13:57:25;31.20;26.00
38020;DHT22;23829;51.350;17.286;2023-05-10T13:59:51;31.10;25.90
38020;DHT22;23829;51.350;17.286;2023-05-10T14:02:18;30.70;26.00
38020;DHT22;23829;51.350;17.286;2023-05-10T14:04:45;31.00;26.30
38020;DHT22;23829;51.350;17.286;2023-05-10T14:07:12;31.10;26.40
38020;DHT22;23829;51.350;17.286;2023-05-10T14:09:38;31.10;26.50
38020;DHT22;23829;51.350;17.286;2023-05-10T14:12:06;31.10;26.40
38020;DHT22;23829;51.350;17.286;2023-05-10T14:14:33;30.90;26.10
38020;DHT22;23829;51.350;17.286;2023-05-10T14:16:59;30.70;26.30
38020;DHT22;23829;51.350;17.286;2023-05-10T14:19:26;31.10;26.60
38020;DHT22;23829;51.350;17.286;2023-05-10T14:21:53;31.20;26.30
38020;DHT22;23829;51.350;17.286;2023-05-10T14:24:19;31.00;26.40
38020;DHT22;23829;51.350;17.286;2023-05-10T14:26:46;31.00;26.00
38020;DHT22;23829;51.350;17.286;2023-05-10T14:29:12;31.10;26.10
38020;DHT22;23829;51.350;17.286;2023-05-10T14:31:40;31.00;26.30
38020;DHT22;23829;51.350;17.286;2023-05-10T14:34:06;30.90;26.60
38020;DHT22;23829;51.350;17.286;2023-05-10T14:36:33;31.10;26.30
38020;DHT22;23829;51.350;17.286;2023-05-10T14:38:59;30.90;26.70
38020;DHT22;23829;51.350;17.286;2023-05-10T14:41:26;31.00;26.60
38020;DHT22;23829;51.350;17.286;2023-05-10T14:43:52;30.90;26.70
38020;DHT22;23829;51.350;17.286;2023-05-10T14:46:20;30.80;26.50
38020;DHT22;23829;51.350;17.286;2023-05-10T14:48:46;30.70;26.80
38020;DHT22;23829;51.350;17.286;2023-05-10T14:51:13;31.00;26.80
38020;DHT22;23829;51.350;17.286;2023-05-10T14:53:39;31.30;26.00
38020;DHT22;23829;51.350;17.286;2023-05-10T14:56:06;31.30;26.50
38020;DHT22;23829;51.350;17.286;2023-05-10T14:58:33;31.60;26.40
38020;DHT22;23829;51.350;17.286;2023-05-10T15:00:59;31.40;26.10
38020;DHT22;23829;51.350;17.286;2023-05-10T15:03:26;31.10;26.10
38020;DHT22;23829;51.350;17.286;2023-05-10T15:05:52;31.10;26.50
38020;DHT22;23829;51.350;17.286;2023-05-10T15:08:19;31.20;26.60
38020;DHT22;23829;51.350;17.286;2023-05-10T15:10:45;31.30;26.50
38020;DHT22;23829;51.350;17.286;2023-05-10T15:13:12;31.10;26.40
38020;DHT22;23829;51.350;17.286;2023-05-10T15:15:39;30.70;26.20
38020;DHT22;23829;51.350;17.286;2023-05-10T15:18:05;31.00;26.40
38020;DHT22;23829;51.350;17.286;2023-05-10T15:20:32;30.90;26.00
38020;DHT22;23829;51.350;17.286;2023-05-10T15:22:58;30.90;26.40
38020;DHT22;23829;51.350;17.286;2023-05-10T15:25:25;31.00;26.10
38020;DHT22;23829;51.350;17.286;2023-05-10T15:27:52;31.00;26.40
38020;DHT22;23829;51.350;17.286;2023-05-10T15:30:18;31.10;26.20
38020;DHT22;23829;51.350;17.286;2023-05-10T15:32:45;31.10;26.00
38020;DHT22;23829;51.350;17.286;2023-05-10T15:35:11;31.10;26.30
38020;DHT22;23829;51.350;17.286;2023-05-10T15:37:38;30.90;26.00
38020;DHT22;23829;51.350;17.286;2023-05-10T15:40:05;30.70;26.10
38020;DHT22;23829;51.350;17.286;2023-05-10T15:42:32;30.60;26.40
38020;DHT22;23829;51.350;17.286;2023-05-10T15:44:59;30.60;26.60
38020;DHT22;23829;51.350;17.286;2023-05-10T15:47:26;30.70;26.30
38020;DHT22;23829;51.350;17.286;2023-05-10T15:49:53;30.70;26.10
38020;DHT22;23829;51.350;17.286;2023-05-10T15:52:20;31.00;25.80